createdAt,value
2022-08-17T00:00:43.756Z,23.90
2022-08-17T00:03:24.125Z,24.10
2022-08-17T00:06:08.447Z,24.00
2022-08-17T00:08:42.800Z,24.00
2022-08-17T00:12:43.465Z,24.10
2022-08-17T00:14:36.067Z,23.80
2022-08-17T00:17:06.397Z,23.50
2022-08-17T00:19:34.096Z,23.60
2022-08-17T00:22:31.289Z,23.50
2022-08-17T00:24:51.158Z,23.50
2022-08-17T00:27:20.409Z,23.60
2022-08-17T00:29:48.199Z,23.70
2022-08-17T00:33:12.019Z,23.80
2022-08-17T00:35:09.804Z,23.60
2022-08-17T00:37:37.107Z,23.60
2022-08-17T00:40:07.101Z,23.70
2022-08-17T00:42:34.792Z,23.70
2022-08-17T00:45:04.437Z,23.70
2022-08-17T00:47:32.156Z,23.70
2022-08-17T00:49:59.582Z,23.80
2022-08-17T00:52:38.822Z,23.70
2022-08-17T00:55:08.648Z,23.70
2022-08-17T00:57:44.432Z,23.60
2022-08-17T01:00:32.982Z,23.70
2022-08-17T01:03:09.993Z,23.70
2022-08-17T01:05:42.537Z,23.70
2022-08-17T01:08:16.772Z,23.80
2022-08-17T01:10:58.691Z,23.40
2022-08-17T01:13:40.962Z,23.40
2022-08-17T01:16:20.857Z,23.50
2022-08-17T01:18:58.638Z,23.50
2022-08-17T01:22:09.097Z,23.60
2022-08-17T01:24:45.932Z,23.50
2022-08-17T01:27:16.441Z,23.60
2022-08-17T01:29:56.838Z,23.40
2022-08-17T01:32:26.697Z,23.40
2022-08-17T01:34:55.428Z,23.60
2022-08-17T01:37:36.465Z,23.50
2022-08-17T01:40:34.804Z,23.40
2022-08-17T01:43:22.763Z,23.50
2022-08-17T01:46:02.856Z,23.20
2022-08-17T01:48:38.614Z,23.30
2022-08-17T01:51:07.614Z,23.50
2022-08-17T01:53:47.310Z,23.40
2022-08-17T01:56:21.319Z,23.40
2022-08-17T01:58:49.950Z,23.40
2022-08-17T02:01:30.224Z,23.40
2022-08-17T02:04:00.603Z,23.30
2022-08-17T02:06:44.918Z,23.50
2022-08-17T02:09:16.800Z,23.30
2022-08-17T02:11:45.372Z,23.40
2022-08-17T02:14:13.914Z,23.20
2022-08-17T02:16:42.219Z,23.50
2022-08-17T02:19:15.916Z,23.30
2022-08-17T02:21:48.496Z,23.10
2022-08-17T02:24:59.468Z,23.20
2022-08-17T02:27:20.478Z,23.30
2022-08-17T02:29:48.679Z,23.30
2022-08-17T02:32:27.857Z,23.30
2022-08-17T02:34:58.037Z,23.10
2022-08-17T02:37:28.233Z,23.10
2022-08-17T02:39:57.241Z,23.10
2022-08-17T02:42:36.484Z,22.80
2022-08-17T02:45:14.480Z,22.70
2022-08-17T02:47:44.165Z,22.50
2022-08-17T02:50:17.373Z,22.40
2022-08-17T02:52:48.825Z,22.60
2022-08-17T02:55:40.151Z,22.70
2022-08-17T02:58:10.632Z,22.40
2022-08-17T03:00:48.056Z,22.20
2022-08-17T03:03:20.901Z,22.40
2022-08-17T03:05:53.560Z,22.50
2022-08-17T03:08:21.971Z,22.50
2022-08-17T03:10:50.555Z,22.50
2022-08-17T03:13:18.006Z,22.50
2022-08-17T03:15:47.982Z,22.30
2022-08-17T03:18:24.486Z,22.30
2022-08-17T03:21:01.757Z,22.40
2022-08-17T03:23:30.332Z,22.30
2022-08-17T03:25:59.283Z,22.20
2022-08-17T03:28:29.108Z,22.00
2022-08-17T03:30:56.479Z,22.30
2022-08-17T03:33:23.853Z,22.30
2022-08-17T03:35:52.846Z,22.20
2022-08-17T03:38:20.613Z,22.00
2022-08-17T03:40:56.328Z,22.20
2022-08-17T03:43:32.717Z,22.20
2022-08-17T03:46:34.332Z,22.20
2022-08-17T03:49:26.658Z,22.30
2022-08-17T03:52:15.205Z,22.00
2022-08-17T03:55:03.801Z,21.70
2022-08-17T03:57:31.979Z,21.90
2022-08-17T03:59:59.808Z,21.80
2022-08-17T04:02:34.896Z,21.70
2022-08-17T04:05:02.486Z,21.60
2022-08-17T04:07:31.851Z,21.50
2022-08-17T04:10:00.397Z,21.50
2022-08-17T04:12:31.081Z,21.70
2022-08-17T04:14:59.059Z,21.40
2022-08-17T04:17:30.425Z,21.40
2022-08-17T04:19:58.225Z,21.20
2022-08-17T04:22:31.850Z,21.10
2022-08-17T04:25:20.725Z,21.30
2022-08-17T04:27:48.761Z,21.50
2022-08-17T04:30:16.997Z,21.50
2022-08-17T04:33:06.358Z,21.40
2022-08-17T04:35:47.857Z,21.40
2022-08-17T04:38:34.409Z,21.20
2022-08-17T04:41:22.229Z,21.30
2022-08-17T04:43:55.927Z,21.30
2022-08-17T04:46:33.665Z,21.30
2022-08-17T04:49:10.348Z,21.30
2022-08-17T04:51:55.693Z,21.10
2022-08-17T04:54:24.308Z,21.30
2022-08-17T04:56:51.647Z,21.40
2022-08-17T04:59:22.599Z,21.40
2022-08-17T05:01:52.315Z,21.30
2022-08-17T05:04:34.373Z,21.20
2022-08-17T05:07:04.481Z,21.10
2022-08-17T05:09:31.868Z,21.20
2022-08-17T05:12:03.065Z,21.10
2022-08-17T05:14:33.398Z,21.20
2022-08-17T05:17:07.469Z,21.30
2022-08-17T05:19:38.833Z,21.30
2022-08-17T05:22:06.769Z,21.30
2022-08-17T05:24:38.599Z,21.30
2022-08-17T05:27:10.875Z,21.30
2022-08-17T05:29:45.180Z,21.30
2022-08-17T05:32:39.479Z,21.30
2022-08-17T05:35:02.160Z,21.30
2022-08-17T05:37:29.516Z,21.20
2022-08-17T05:39:56.808Z,21.30
2022-08-17T05:42:24.257Z,21.30
2022-08-17T05:44:52.708Z,21.50
2022-08-17T05:47:22.213Z,21.40
2022-08-17T05:49:49.585Z,21.50
2022-08-17T05:53:10.850Z,21.50
2022-08-17T05:56:30.689Z,21.40
2022-08-17T05:59:40.781Z,21.70
2022-08-17T06:03:17.412Z,21.80
2022-08-17T06:05:53.528Z,21.90
2022-08-17T06:09:30.134Z,21.90
2022-08-17T06:12:54.274Z,21.80
2022-08-17T06:15:54.047Z,21.80
2022-08-17T06:18:28.623Z,21.80
2022-08-17T06:21:07.076Z,21.80
2022-08-17T06:23:55.447Z,21.80
2022-08-17T06:26:42.765Z,22.00
2022-08-17T06:30:01.769Z,22.10
2022-08-17T06:32:31.199Z,22.20
2022-08-17T06:35:11.397Z,22.30
2022-08-17T06:38:45.762Z,22.40
2022-08-17T06:41:38.109Z,22.30
2022-08-17T06:44:49.719Z,22.40
2022-08-17T06:47:29.644Z,22.40
2022-08-17T06:50:31.573Z,22.30
2022-08-17T06:53:59.879Z,22.40
2022-08-17T06:57:19.654Z,22.50
2022-08-17T07:00:16.585Z,22.60
2022-08-17T07:03:37.867Z,22.80
2022-08-17T07:06:27.903Z,22.80
2022-08-17T07:09:44.584Z,22.80
2022-08-17T07:12:25.636Z,22.90
2022-08-17T07:15:23.117Z,22.80
2022-08-17T07:17:56.932Z,22.80
2022-08-17T07:20:24.481Z,22.90
2022-08-17T07:23:34.475Z,23.00
2022-08-17T07:26:09.734Z,23.10
2022-08-17T07:28:38.620Z,23.20
2022-08-17T07:31:06.940Z,23.30
2022-08-17T07:33:36.896Z,23.30
2022-08-17T07:36:05.706Z,23.50
2022-08-17T07:38:35.597Z,23.60
2022-08-17T07:41:08.525Z,23.60
2022-08-17T07:43:51.044Z,23.70
2022-08-17T07:47:05.189Z,23.60
2022-08-17T07:49:32.270Z,23.50
2022-08-17T07:52:50.573Z,23.60
2022-08-17T07:55:45.400Z,23.70
2022-08-17T07:58:24.077Z,23.60
2022-08-17T08:01:15.512Z,23.80
2022-08-17T08:03:46.425Z,23.90
2022-08-17T08:06:26.389Z,24.00
2022-08-17T08:08:56.464Z,23.90
2022-08-17T08:11:37.544Z,24.10
2022-08-17T08:14:38.307Z,24.10
2022-08-17T08:17:09.366Z,24.20
2022-08-17T08:19:37.083Z,24.30
2022-08-17T08:22:29.593Z,24.10
2022-08-17T08:25:25.395Z,24.10
2022-08-17T08:28:14.954Z,24.10
2022-08-17T08:30:53.530Z,24.10
2022-08-17T08:33:51.308Z,24.20
2022-08-17T08:37:17.783Z,24.20
2022-08-17T08:40:42.991Z,24.10
2022-08-17T08:43:52.895Z,24.10
2022-08-17T08:46:53.751Z,23.70
2022-08-17T08:50:05.820Z,23.60
2022-08-17T08:53:13.008Z,23.50
2022-08-17T08:56:20.347Z,23.30
2022-08-17T08:59:41.970Z,23.00
2022-08-17T09:03:15.915Z,22.90
2022-08-17T09:06:39.129Z,22.60
2022-08-17T09:10:08.264Z,22.10
2022-08-17T09:13:35.384Z,22.50
2022-08-17T09:16:29.689Z,22.50
2022-08-17T09:19:46.413Z,22.20
2022-08-17T09:22:48.503Z,22.10
2022-08-17T09:25:33.440Z,22.50
2022-08-17T09:28:29.993Z,22.40
2022-08-17T09:31:17.533Z,22.60
2022-08-17T09:33:48.927Z,22.70
2022-08-17T09:36:49.957Z,22.80
2022-08-17T09:40:11.281Z,22.80
2022-08-17T09:42:53.396Z,22.80
2022-08-17T09:45:57.187Z,22.70
2022-08-17T09:48:55.317Z,22.80
2022-08-17T09:51:44.001Z,22.70
2022-08-17T09:54:39.221Z,22.90
2022-08-17T09:57:40.148Z,22.90
2022-08-17T10:00:31.284Z,23.00
2022-08-17T10:03:42.752Z,23.10
2022-08-17T10:06:30.623Z,23.30
2022-08-17T10:09:43.325Z,23.30
2022-08-17T10:13:14.717Z,23.50
2022-08-17T10:16:55.876Z,23.60
2022-08-17T10:19:57.620Z,23.80
2022-08-17T10:23:19.422Z,23.90
2022-08-17T10:26:24.964Z,24.00
2022-08-17T10:29:21.303Z,24.10
2022-08-17T10:32:03.500Z,24.10
2022-08-17T10:34:45.873Z,24.50
2022-08-17T10:38:38.954Z,24.60
2022-08-17T10:41:54.021Z,24.40
2022-08-17T10:44:56.583Z,24.50
2022-08-17T10:47:26.989Z,24.60
2022-08-17T10:49:55.986Z,24.80
2022-08-17T10:52:24.945Z,24.70
2022-08-17T10:54:57.938Z,24.90
2022-08-17T10:57:34.383Z,24.90
2022-08-17T11:00:10.456Z,24.90
2022-08-17T11:02:50.955Z,25.00
2022-08-17T11:05:55.500Z,25.20
2022-08-17T11:09:52.081Z,25.20
2022-08-17T11:13:10.949Z,25.50
2022-08-17T11:16:37.664Z,25.30
2022-08-17T11:19:58.144Z,25.70
2022-08-17T11:23:08.348Z,25.80
2022-08-17T11:26:04.145Z,25.80
2022-08-17T11:28:52.669Z,25.90
2022-08-17T11:31:42.639Z,26.10
2022-08-17T11:34:26.413Z,26.20
2022-08-17T11:37:55.035Z,26.50
2022-08-17T11:41:27.434Z,26.20
2022-08-17T11:44:22.809Z,26.40
2022-08-17T11:48:27.206Z,26.50
2022-08-17T11:51:35.016Z,26.50
2022-08-17T11:54:32.245Z,26.50
2022-08-17T11:56:56.715Z,26.60
2022-08-17T11:59:33.011Z,26.60
2022-08-17T12:02:31.478Z,26.60
2022-08-17T12:05:17.259Z,26.30
2022-08-17T12:08:15.193Z,26.50
2022-08-17T12:12:11.110Z,27.00
2022-08-17T12:15:07.839Z,26.80
2022-08-17T12:17:40.389Z,27.30
2022-08-17T12:20:42.818Z,27.40
2022-08-17T12:23:47.861Z,27.50
2022-08-17T12:26:23.195Z,27.70
2022-08-17T12:29:03.584Z,27.50
2022-08-17T12:31:51.376Z,27.70
2022-08-17T12:34:27.262Z,27.60
2022-08-17T12:37:29.560Z,28.10
2022-08-17T12:40:24.105Z,28.00
2022-08-17T12:43:19.576Z,27.90
2022-08-17T12:46:13.222Z,28.00
2022-08-17T12:48:58.898Z,28.10
2022-08-17T12:51:29.798Z,28.70
2022-08-17T12:53:57.438Z,28.90
2022-08-17T12:56:24.777Z,28.80
2022-08-17T12:58:54.406Z,28.90
2022-08-17T13:01:24.965Z,28.60
2022-08-17T13:03:57.243Z,28.00
2022-08-17T13:06:59.689Z,28.70
2022-08-17T13:09:35.752Z,29.10
2022-08-17T13:12:08.157Z,29.30
2022-08-17T13:14:35.686Z,29.10
2022-08-17T13:17:09.638Z,29.40
2022-08-17T13:19:50.807Z,29.50
2022-08-17T13:22:24.341Z,28.70
2022-08-17T13:25:05.322Z,29.80
2022-08-17T13:27:34.040Z,30.10
2022-08-17T13:30:12.759Z,30.20
2022-08-17T13:32:48.403Z,30.40
2022-08-17T13:35:49.923Z,29.60
2022-08-17T13:38:50.909Z,29.70
2022-08-17T13:41:34.951Z,28.60
2022-08-17T13:44:04.227Z,29.30
2022-08-17T13:46:34.796Z,29.70
2022-08-17T13:49:10.449Z,28.70
2022-08-17T13:51:50.189Z,29.20
2022-08-17T13:54:36.735Z,28.70
2022-08-17T13:57:23.233Z,28.20
2022-08-17T13:59:58.151Z,28.20
2022-08-17T14:02:27.684Z,27.40
2022-08-17T14:04:58.564Z,27.50
2022-08-17T14:07:37.700Z,27.10
2022-08-17T14:10:15.244Z,27.10
2022-08-17T14:12:45.887Z,27.30
2022-08-17T14:15:20.607Z,27.40
2022-08-17T14:17:52.628Z,27.00
2022-08-17T14:20:22.548Z,26.80
2022-08-17T14:22:55.875Z,27.00
2022-08-17T14:25:29.677Z,26.60
2022-08-17T14:27:57.397Z,26.70
2022-08-17T14:30:29.920Z,26.50
2022-08-17T14:32:58.792Z,26.00
2022-08-17T14:35:28.125Z,25.20
2022-08-17T14:37:56.362Z,24.10
2022-08-17T14:40:25.512Z,23.10
2022-08-17T14:42:56.479Z,22.40
2022-08-17T14:45:32.003Z,22.00
2022-08-17T14:48:07.690Z,21.80
2022-08-17T14:50:41.070Z,22.00
2022-08-17T14:53:14.309Z,22.30
2022-08-17T14:55:47.413Z,22.30
2022-08-17T14:58:15.998Z,21.80
2022-08-17T15:00:43.894Z,21.80
2022-08-17T15:03:11.811Z,21.80
2022-08-17T15:05:41.233Z,22.00
2022-08-17T15:08:08.777Z,22.30
2022-08-17T15:10:37.050Z,22.40
2022-08-17T15:13:04.983Z,22.50
2022-08-17T15:15:32.387Z,22.50
2022-08-17T15:18:00.254Z,22.40
2022-08-17T15:20:30.261Z,22.50
2022-08-17T15:22:59.119Z,22.80
2022-08-17T15:25:31.925Z,22.40
2022-08-17T15:28:00.957Z,22.20
2022-08-17T15:30:30.350Z,22.50
2022-08-17T15:33:00.607Z,22.50
2022-08-17T15:35:33.072Z,22.70
2022-08-17T15:38:11.750Z,22.90
2022-08-17T15:40:50.253Z,22.80
2022-08-17T15:43:27.874Z,23.00
2022-08-17T15:46:11.978Z,22.80
2022-08-17T15:48:44.759Z,22.80
2022-08-17T15:51:25.786Z,22.60
2022-08-17T15:54:19.033Z,22.60
2022-08-17T15:56:50.781Z,22.60
2022-08-17T15:59:19.419Z,22.80
2022-08-17T16:03:06.206Z,22.80
2022-08-17T16:04:34.154Z,22.80
2022-08-17T16:07:01.550Z,22.80
2022-08-17T16:09:28.922Z,22.30
2022-08-17T16:11:57.139Z,22.40
2022-08-17T16:14:32.423Z,22.70
2022-08-17T16:17:39.223Z,22.50
2022-08-17T16:19:54.306Z,22.40
2022-08-17T16:22:45.804Z,22.40
2022-08-17T16:25:47.153Z,22.50
2022-08-17T16:28:18.029Z,22.70
2022-08-17T16:30:45.853Z,22.70
2022-08-17T16:33:13.599Z,22.60
2022-08-17T16:35:42.786Z,22.80
2022-08-17T16:38:10.908Z,22.70
2022-08-17T16:40:38.457Z,22.80
2022-08-17T16:43:11.209Z,22.80
2022-08-17T16:45:40.860Z,22.80
2022-08-17T16:48:09.930Z,22.70
2022-08-17T16:50:38.209Z,22.80
2022-08-17T16:53:17.365Z,22.60
2022-08-17T16:55:51.993Z,22.80
2022-08-17T16:58:19.988Z,22.80
2022-08-17T17:00:48.769Z,22.70
2022-08-17T17:03:24.700Z,22.80
2022-08-17T17:07:03.852Z,22.70
2022-08-17T17:09:38.722Z,22.70
2022-08-17T17:12:17.581Z,22.70
2022-08-17T17:14:48.427Z,22.70
2022-08-17T17:17:36.079Z,22.60
2022-08-17T17:20:26.055Z,22.50
2022-08-17T17:23:41.046Z,22.30
2022-08-17T17:26:56.414Z,22.40
2022-08-17T17:30:38.345Z,22.40
2022-08-17T17:33:24.895Z,22.60
2022-08-17T17:36:29.163Z,22.60
2022-08-17T17:39:23.259Z,22.40
2022-08-17T17:42:02.642Z,22.20
2022-08-17T17:44:40.797Z,22.00
2022-08-17T17:47:08.681Z,21.90
2022-08-17T17:49:46.620Z,21.90
2022-08-17T17:52:53.868Z,21.90
2022-08-17T17:55:42.447Z,21.80
2022-08-17T17:59:04.166Z,21.60
2022-08-17T18:01:57.131Z,21.40
2022-08-17T18:04:55.172Z,21.10
2022-08-17T18:07:51.729Z,21.00
2022-08-17T18:10:36.628Z,20.80
2022-08-17T18:13:54.900Z,20.40
2022-08-17T18:16:26.473Z,20.40
2022-08-17T18:18:54.129Z,20.30
2022-08-17T18:21:37.893Z,20.20
2022-08-17T18:24:10.498Z,20.10
2022-08-17T18:26:55.372Z,20.30
2022-08-17T18:29:44.204Z,20.10
2022-08-17T18:32:40.796Z,20.00
2022-08-17T18:35:15.134Z,19.80
2022-08-17T18:37:50.449Z,19.70
2022-08-17T18:40:18.173Z,19.90
2022-08-17T18:43:36.523Z,19.80
2022-08-17T18:46:37.830Z,19.60
2022-08-17T18:49:29.221Z,19.80
2022-08-17T18:52:30.395Z,19.90
2022-08-17T18:55:31.220Z,19.80
2022-08-17T18:58:21.262Z,19.40
2022-08-17T19:00:50.408Z,19.60
2022-08-17T19:03:20.484Z,19.80
2022-08-17T19:06:30.093Z,19.80
2022-08-17T19:08:58.600Z,19.80
2022-08-17T19:11:34.352Z,19.70
2022-08-17T19:14:14.267Z,19.90
2022-08-17T19:17:16.472Z,19.60
2022-08-17T19:20:37.733Z,19.60
2022-08-17T19:23:59.099Z,19.50
2022-08-17T19:26:51.406Z,19.70
2022-08-17T19:30:07.896Z,19.80
2022-08-17T19:32:36.412Z,19.70
2022-08-17T19:35:16.660Z,19.80
2022-08-17T19:38:12.916Z,19.70
2022-08-17T19:41:22.073Z,19.70
2022-08-17T19:44:20.448Z,19.70
2022-08-17T19:47:43.026Z,19.50
2022-08-17T19:50:41.078Z,19.60
2022-08-17T19:54:05.803Z,19.40
2022-08-17T19:57:14.473Z,19.60
2022-08-17T20:00:02.229Z,19.50
2022-08-17T20:03:16.141Z,19.50
2022-08-17T20:06:12.460Z,19.60
2022-08-17T20:09:39.174Z,19.40
2022-08-17T20:12:17.345Z,19.50
2022-08-17T20:15:03.813Z,19.60
2022-08-17T20:17:42.267Z,19.60
2022-08-17T20:21:19.981Z,19.70
2022-08-17T20:24:35.505Z,19.70
2022-08-17T20:27:31.409Z,19.70
2022-08-17T20:30:37.909Z,19.70
2022-08-17T20:33:24.541Z,19.60
2022-08-17T20:36:22.598Z,19.50
2022-08-17T20:38:58.768Z,19.60
2022-08-17T20:41:30.739Z,19.60
2022-08-17T20:43:59.505Z,19.60
2022-08-17T20:46:37.915Z,19.50
2022-08-17T20:49:29.236Z,19.60
2022-08-17T20:52:13.647Z,19.50
2022-08-17T20:54:57.717Z,19.30
2022-08-17T20:57:48.777Z,19.40
2022-08-17T21:00:28.045Z,19.40
2022-08-17T21:03:50.423Z,19.50
2022-08-17T21:06:23.733Z,19.40
2022-08-17T21:09:29.947Z,19.40
2022-08-17T21:12:04.084Z,19.30
2022-08-17T21:15:02.538Z,19.30
2022-08-17T21:18:03.919Z,19.30
2022-08-17T21:21:20.579Z,19.40
2022-08-17T21:24:42.492Z,19.40
2022-08-17T21:27:46.277Z,19.20
2022-08-17T21:30:55.991Z,19.40
2022-08-17T21:33:35.045Z,19.30
2022-08-17T21:36:15.661Z,19.30
2022-08-17T21:38:53.432Z,19.30
2022-08-17T21:41:52.886Z,19.30
2022-08-17T21:44:30.511Z,19.10
2022-08-17T21:47:26.625Z,19.10
2022-08-17T21:50:12.814Z,19.10
2022-08-17T21:52:40.547Z,19.30
2022-08-17T21:55:18.098Z,19.10
2022-08-17T21:57:52.933Z,19.20
2022-08-17T22:00:36.936Z,19.10
2022-08-17T22:03:21.241Z,19.20
2022-08-17T22:05:50.342Z,19.00
2022-08-17T22:08:26.067Z,19.30
2022-08-17T22:11:02.337Z,19.10
2022-08-17T22:13:30.492Z,19.30
2022-08-17T22:16:28.730Z,19.20
2022-08-17T22:18:59.103Z,19.10
2022-08-17T22:21:26.874Z,19.00
2022-08-17T22:24:21.555Z,19.00
2022-08-17T22:27:11.449Z,19.00
2022-08-17T22:30:00.273Z,19.10
2022-08-17T22:32:55.393Z,18.90
2022-08-17T22:35:45.620Z,19.00
2022-08-17T22:38:19.186Z,19.10
2022-08-17T22:41:26.019Z,18.90
2022-08-17T22:43:57.384Z,19.00
2022-08-17T22:46:26.171Z,18.90
2022-08-17T22:48:59.310Z,18.90
2022-08-17T22:51:30.918Z,18.60
2022-08-17T22:54:31.904Z,18.80
2022-08-17T22:57:23.224Z,18.90
2022-08-17T22:59:55.891Z,18.70
2022-08-17T23:02:34.648Z,18.70
2022-08-17T23:05:12.776Z,18.90
2022-08-17T23:07:43.383Z,18.80
2022-08-17T23:10:13.055Z,18.70
2022-08-17T23:12:40.588Z,18.70
2022-08-17T23:15:19.250Z,18.80
2022-08-17T23:17:46.803Z,18.80
2022-08-17T23:20:17.458Z,18.80
2022-08-17T23:22:51.558Z,18.70
2022-08-17T23:25:33.615Z,18.80
2022-08-17T23:28:05.048Z,18.90
2022-08-17T23:30:40.790Z,18.60
2022-08-17T23:33:29.835Z,18.60
2022-08-17T23:35:58.821Z,18.70
2022-08-17T23:38:27.597Z,18.70
2022-08-17T23:40:59.978Z,18.70
2022-08-17T23:43:29.676Z,18.70
2022-08-17T23:46:00.450Z,18.70
2022-08-17T23:48:35.325Z,18.80
2022-08-17T23:51:25.287Z,18.80
2022-08-17T23:54:07.345Z,18.80
2022-08-17T23:56:49.486Z,18.80
2022-08-17T23:59:21.517Z,18.80
